createdAt,value
2022-12-29T00:00:23.525Z,10.20
2022-12-29T00:02:52.208Z,10.10
2022-12-29T00:05:20.904Z,10.10
2022-12-29T00:07:50.825Z,10.10
2022-12-29T00:10:19.323Z,10.10
2022-12-29T00:13:05.146Z,10.10
2022-12-29T00:15:39.250Z,10.10
2022-12-29T00:18:09.720Z,10.20
2022-12-29T00:20:58.124Z,10.10
2022-12-29T00:23:45.230Z,10.10
2022-12-29T00:26:33.646Z,10.10
2022-12-29T00:29:19.421Z,10.10
2022-12-29T00:32:06.618Z,10.10
2022-12-29T00:35:04.764Z,10.10
2022-12-29T00:37:47.167Z,10.10
2022-12-29T00:40:34.893Z,10.00
2022-12-29T00:43:20.877Z,10.10
2022-12-29T00:45:49.392Z,10.10
2022-12-29T00:48:37.955Z,10.10
2022-12-29T00:51:05.860Z,10.10
2022-12-29T00:53:37.503Z,10.10
2022-12-29T00:56:07.633Z,10.10
2022-12-29T00:58:36.212Z,10.10
2022-12-29T01:01:08.332Z,10.10
2022-12-29T01:03:38.273Z,10.10
2022-12-29T01:06:09.258Z,10.10
2022-12-29T01:08:39.733Z,10.10
2022-12-29T01:11:11.063Z,10.10
2022-12-29T01:13:44.752Z,10.10
2022-12-29T01:16:13.485Z,10.10
2022-12-29T01:18:43.778Z,10.20
2022-12-29T01:21:15.185Z,10.20
2022-12-29T01:23:43.719Z,10.20
2022-12-29T01:26:14.662Z,10.20
2022-12-29T01:28:45.746Z,10.20
2022-12-29T01:31:16.286Z,10.20
2022-12-29T01:33:48.155Z,10.20
2022-12-29T01:36:18.271Z,10.20
2022-12-29T01:38:47.245Z,10.20
2022-12-29T01:41:20.662Z,10.20
2022-12-29T01:43:51.417Z,10.20
2022-12-29T01:46:27.684Z,10.20
2022-12-29T01:49:00.165Z,10.20
2022-12-29T01:51:30.535Z,10.20
2022-12-29T01:54:01.897Z,10.20
2022-12-29T01:56:32.315Z,10.20
2022-12-29T01:59:05.484Z,10.20
2022-12-29T02:01:34.334Z,10.20
2022-12-29T02:04:04.357Z,10.20
2022-12-29T02:06:37.431Z,10.10
2022-12-29T02:09:06.009Z,10.20
2022-12-29T02:11:38.504Z,10.20
2022-12-29T02:14:12.262Z,10.20
2022-12-29T02:16:58.482Z,10.10
2022-12-29T02:20:02.762Z,10.20
2022-12-29T02:22:37.000Z,10.20
2022-12-29T02:25:37.637Z,10.20
2022-12-29T02:28:32.913Z,10.10
2022-12-29T02:31:12.287Z,10.10
2022-12-29T02:33:58.969Z,10.10
2022-12-29T02:36:40.688Z,10.10
2022-12-29T02:39:17.559Z,10.10
2022-12-29T02:41:59.432Z,10.10
2022-12-29T02:44:37.107Z,10.10
2022-12-29T02:47:14.896Z,10.20
2022-12-29T02:49:50.564Z,10.10
2022-12-29T02:52:24.321Z,10.20
2022-12-29T02:54:54.396Z,10.20
2022-12-29T02:57:32.588Z,10.10
2022-12-29T03:00:08.602Z,10.10
2022-12-29T03:03:10.956Z,10.10
2022-12-29T03:06:03.451Z,10.10
2022-12-29T03:08:39.519Z,10.10
2022-12-29T03:11:32.638Z,10.10
2022-12-29T03:14:25.745Z,10.10
2022-12-29T03:17:01.700Z,10.10
2022-12-29T03:19:35.774Z,10.00
2022-12-29T03:22:33.585Z,10.00
2022-12-29T03:25:19.901Z,10.00
2022-12-29T03:27:53.607Z,9.90
2022-12-29T03:30:25.877Z,10.00
2022-12-29T03:32:58.820Z,10.00
2022-12-29T03:35:35.077Z,10.00
2022-12-29T03:38:12.167Z,10.00
2022-12-29T03:40:43.027Z,10.00
2022-12-29T03:43:13.841Z,10.10
2022-12-29T03:45:43.113Z,10.10
2022-12-29T03:48:12.121Z,10.10
2022-12-29T03:50:44.345Z,10.10
2022-12-29T03:53:13.013Z,10.10
2022-12-29T03:55:41.610Z,10.00
2022-12-29T03:58:10.345Z,10.10
2022-12-29T04:01:02.061Z,10.10
2022-12-29T04:03:33.066Z,10.10
2022-12-29T04:06:03.072Z,10.10
2022-12-29T04:08:38.377Z,10.10
2022-12-29T04:11:08.159Z,10.10
2022-12-29T04:13:36.740Z,10.10
2022-12-29T04:16:05.634Z,10.10
2022-12-29T04:18:34.935Z,10.00
2022-12-29T04:21:05.094Z,10.00
2022-12-29T04:23:37.983Z,10.00
2022-12-29T04:26:10.152Z,10.10
2022-12-29T04:29:01.364Z,10.00
2022-12-29T04:31:44.094Z,10.00
2022-12-29T04:34:16.356Z,10.00
2022-12-29T04:36:50.426Z,10.00
2022-12-29T04:39:19.897Z,10.00
2022-12-29T04:41:48.538Z,10.00
2022-12-29T04:44:21.784Z,10.00
2022-12-29T04:47:16.432Z,10.00
2022-12-29T04:49:57.440Z,10.00
2022-12-29T04:52:46.598Z,10.00
2022-12-29T04:55:16.624Z,10.10
2022-12-29T04:57:47.352Z,10.10
2022-12-29T05:00:20.328Z,10.10
2022-12-29T05:02:49.683Z,10.00
2022-12-29T05:05:21.123Z,10.00
2022-12-29T05:07:53.971Z,10.00
2022-12-29T05:10:22.490Z,10.00
2022-12-29T05:12:54.408Z,9.90
2022-12-29T05:15:23.243Z,9.90
2022-12-29T05:17:52.385Z,9.90
2022-12-29T05:20:21.015Z,10.00
2022-12-29T05:22:49.628Z,10.00
2022-12-29T05:25:19.566Z,10.00
2022-12-29T05:28:00.530Z,10.00
2022-12-29T05:30:42.681Z,10.00
2022-12-29T05:33:12.755Z,10.00
2022-12-29T05:35:45.108Z,10.00
2022-12-29T05:38:14.751Z,10.00
2022-12-29T05:40:45.684Z,10.00
2022-12-29T05:43:32.274Z,10.00
2022-12-29T05:46:23.623Z,10.00
2022-12-29T05:49:01.123Z,10.00
2022-12-29T05:51:40.833Z,10.10
2022-12-29T05:54:09.683Z,10.00
2022-12-29T05:56:40.708Z,10.00
2022-12-29T05:59:09.438Z,10.00
2022-12-29T06:01:39.138Z,10.00
2022-12-29T06:04:07.828Z,10.00
2022-12-29T06:06:39.933Z,10.00
2022-12-29T06:09:13.010Z,10.00
2022-12-29T06:11:43.976Z,10.00
2022-12-29T06:14:12.686Z,10.00
2022-12-29T06:16:41.232Z,10.00
2022-12-29T06:19:13.129Z,10.00
2022-12-29T06:21:42.683Z,10.00
2022-12-29T06:24:12.230Z,10.00
2022-12-29T06:26:43.015Z,10.00
2022-12-29T06:29:12.128Z,10.00
2022-12-29T06:31:40.644Z,10.00
2022-12-29T06:34:12.082Z,10.00
2022-12-29T06:36:40.866Z,10.00
2022-12-29T06:39:09.540Z,10.00
2022-12-29T06:41:38.057Z,10.00
2022-12-29T06:44:42.706Z,10.00
2022-12-29T06:47:12.161Z,10.00
2022-12-29T06:49:40.637Z,10.00
2022-12-29T06:52:12.933Z,10.00
2022-12-29T06:54:41.943Z,10.00
2022-12-29T06:57:10.436Z,10.00
2022-12-29T06:59:39.540Z,10.00
2022-12-29T07:02:11.682Z,10.00
2022-12-29T07:04:40.360Z,10.00
2022-12-29T07:07:08.836Z,10.00
2022-12-29T07:09:37.384Z,10.00
2022-12-29T07:12:09.013Z,10.00
2022-12-29T07:14:42.927Z,10.00
2022-12-29T07:17:13.373Z,10.00
2022-12-29T07:19:42.113Z,10.00
2022-12-29T07:22:11.488Z,10.00
2022-12-29T07:24:39.958Z,10.00
2022-12-29T07:27:08.593Z,10.00
2022-12-29T07:29:39.688Z,10.00
2022-12-29T07:32:08.200Z,10.00
2022-12-29T07:34:40.753Z,10.00
2022-12-29T07:37:09.385Z,10.00
2022-12-29T07:39:37.928Z,10.00
2022-12-29T07:42:06.517Z,10.00
2022-12-29T07:44:46.604Z,10.10
2022-12-29T07:47:28.294Z,10.10
2022-12-29T07:49:58.287Z,10.10
2022-12-29T07:52:26.889Z,10.10
2022-12-29T07:54:55.457Z,10.10
2022-12-29T07:57:31.737Z,10.10
2022-12-29T08:00:01.017Z,10.10
2022-12-29T08:02:30.771Z,10.20
2022-12-29T08:05:00.738Z,10.20
2022-12-29T08:07:29.321Z,10.20
2022-12-29T08:09:58.234Z,10.20
2022-12-29T08:12:26.718Z,10.30
2022-12-29T08:14:55.146Z,10.20
2022-12-29T08:17:26.354Z,10.20
2022-12-29T08:19:54.863Z,10.20
2022-12-29T08:22:25.143Z,10.20
2022-12-29T08:24:53.650Z,10.20
2022-12-29T08:27:22.225Z,10.10
2022-12-29T08:29:51.192Z,10.10
2022-12-29T08:32:20.200Z,10.20
2022-12-29T08:34:50.890Z,10.20
2022-12-29T08:37:23.962Z,10.20
2022-12-29T08:39:59.956Z,10.20
2022-12-29T08:42:32.052Z,10.30
2022-12-29T08:45:02.128Z,10.40
2022-12-29T08:47:30.855Z,10.30
2022-12-29T08:49:59.405Z,10.30
2022-12-29T08:52:27.905Z,10.30
2022-12-29T08:54:57.695Z,10.30
2022-12-29T08:57:26.915Z,10.40
2022-12-29T09:00:16.005Z,10.40
2022-12-29T09:02:47.435Z,10.50
2022-12-29T09:05:16.242Z,10.50
2022-12-29T09:07:44.824Z,10.50
2022-12-29T09:10:17.148Z,10.50
2022-12-29T09:12:45.689Z,10.50
2022-12-29T09:15:14.474Z,10.50
2022-12-29T09:17:43.019Z,10.50
2022-12-29T09:20:12.513Z,10.50
2022-12-29T09:22:41.079Z,10.50
2022-12-29T09:25:10.924Z,10.50
2022-12-29T09:27:41.213Z,10.40
2022-12-29T09:30:15.508Z,10.40
2022-12-29T09:32:45.826Z,10.40
2022-12-29T09:35:16.264Z,10.50
2022-12-29T09:37:45.348Z,10.60
2022-12-29T09:40:31.012Z,10.60
2022-12-29T09:43:26.473Z,10.60
2022-12-29T09:45:59.610Z,10.70
2022-12-29T09:48:31.873Z,10.70
2022-12-29T09:51:04.325Z,10.60
2022-12-29T09:53:38.767Z,10.60
2022-12-29T09:56:13.924Z,10.70
2022-12-29T09:58:49.851Z,10.70
2022-12-29T10:01:28.734Z,10.70
2022-12-29T10:03:58.812Z,10.80
2022-12-29T10:06:34.032Z,10.80
2022-12-29T10:09:12.244Z,10.90
2022-12-29T10:11:57.392Z,10.90
2022-12-29T10:14:43.625Z,10.90
2022-12-29T10:17:28.905Z,10.80
2022-12-29T10:20:29.062Z,10.70
2022-12-29T10:23:19.708Z,10.70
2022-12-29T10:25:48.438Z,10.70
2022-12-29T10:28:22.777Z,10.70
2022-12-29T10:30:54.592Z,10.80
2022-12-29T10:33:28.477Z,10.80
2022-12-29T10:35:56.957Z,10.80
2022-12-29T10:38:29.848Z,10.80
2022-12-29T10:41:02.777Z,10.90
2022-12-29T10:43:34.760Z,10.90
2022-12-29T10:46:11.666Z,10.80
2022-12-29T10:48:40.860Z,10.90
2022-12-29T10:51:10.793Z,10.90
2022-12-29T10:53:53.126Z,10.90
2022-12-29T10:56:31.533Z,10.80
2022-12-29T10:59:04.004Z,10.60
2022-12-29T11:01:42.888Z,10.40
2022-12-29T11:04:29.057Z,10.40
2022-12-29T11:06:58.067Z,10.30
2022-12-29T11:09:47.153Z,10.40
2022-12-29T11:12:24.887Z,10.60
2022-12-29T11:15:15.717Z,10.70
2022-12-29T11:17:50.495Z,10.80
2022-12-29T11:20:34.692Z,10.80
2022-12-29T11:23:04.385Z,10.50
2022-12-29T11:25:32.989Z,10.60
2022-12-29T11:28:05.259Z,10.70
2022-12-29T11:30:34.463Z,10.80
2022-12-29T11:33:06.348Z,10.70
2022-12-29T11:35:38.548Z,10.80
2022-12-29T11:38:22.059Z,10.50
2022-12-29T11:40:51.163Z,10.50
2022-12-29T11:43:25.653Z,10.60
2022-12-29T11:45:57.548Z,10.60
2022-12-29T11:48:31.439Z,10.70
2022-12-29T11:51:02.522Z,10.70
2022-12-29T11:53:39.364Z,10.80
2022-12-29T11:56:10.556Z,10.60
2022-12-29T11:58:40.631Z,10.60
2022-12-29T12:01:16.385Z,10.70
2022-12-29T12:03:51.720Z,10.70
2022-12-29T12:06:25.354Z,10.70
2022-12-29T12:08:57.803Z,10.60
2022-12-29T12:11:38.967Z,10.50
2022-12-29T12:14:16.172Z,10.40
2022-12-29T12:17:14.944Z,10.40
2022-12-29T12:19:52.475Z,10.60
2022-12-29T12:22:29.635Z,10.70
2022-12-29T12:25:03.776Z,10.70
2022-12-29T12:27:41.115Z,10.50
2022-12-29T12:30:16.529Z,10.50
2022-12-29T12:32:50.605Z,10.60
2022-12-29T12:35:28.763Z,10.80
2022-12-29T12:38:13.433Z,11.00
2022-12-29T12:41:02.148Z,10.90
2022-12-29T12:43:42.530Z,10.80
2022-12-29T12:46:38.807Z,10.90
2022-12-29T12:49:26.605Z,10.90
2022-12-29T12:52:09.739Z,10.90
2022-12-29T12:54:54.319Z,10.70
2022-12-29T12:57:34.174Z,10.70
2022-12-29T13:00:05.996Z,10.80
2022-12-29T13:02:48.688Z,10.90
2022-12-29T13:05:37.287Z,11.00
2022-12-29T13:08:29.297Z,10.80
2022-12-29T13:11:04.801Z,10.70
2022-12-29T13:13:51.161Z,10.50
2022-12-29T13:16:29.644Z,10.70
2022-12-29T13:19:05.146Z,10.70
2022-12-29T13:21:56.169Z,10.70
2022-12-29T13:24:36.513Z,10.80
2022-12-29T13:27:14.105Z,10.80
2022-12-29T13:29:49.393Z,10.80
2022-12-29T13:32:32.833Z,10.80
2022-12-29T13:35:13.975Z,10.60
2022-12-29T13:37:52.970Z,10.50
2022-12-29T13:40:27.043Z,10.60
2022-12-29T13:42:57.329Z,10.70
2022-12-29T13:45:30.837Z,10.80
2022-12-29T13:48:05.343Z,10.80
2022-12-29T13:50:41.245Z,10.90
2022-12-29T13:53:21.667Z,10.80
2022-12-29T13:55:56.645Z,10.80
2022-12-29T13:58:34.954Z,10.60
2022-12-29T14:01:11.954Z,10.40
2022-12-29T14:03:51.752Z,10.50
2022-12-29T14:06:28.353Z,10.60
2022-12-29T14:08:59.347Z,10.60
2022-12-29T14:11:34.835Z,10.70
2022-12-29T14:14:15.223Z,10.70
2022-12-29T14:16:44.768Z,10.70
2022-12-29T14:19:17.366Z,10.70
2022-12-29T14:21:59.922Z,10.40
2022-12-29T14:24:43.061Z,10.20
2022-12-29T14:27:53.735Z,10.20
2022-12-29T14:30:51.025Z,10.30
2022-12-29T14:33:20.264Z,10.50
2022-12-29T14:35:53.193Z,10.50
2022-12-29T14:38:33.986Z,10.60
2022-12-29T14:41:28.144Z,10.60
2022-12-29T14:44:04.937Z,10.50
2022-12-29T14:46:57.553Z,10.30
2022-12-29T14:49:33.161Z,10.50
2022-12-29T14:52:19.740Z,10.50
2022-12-29T14:54:58.702Z,10.60
2022-12-29T14:57:42.513Z,10.50
2022-12-29T15:00:21.859Z,10.30
2022-12-29T15:03:03.467Z,10.20
2022-12-29T15:05:39.646Z,10.20
2022-12-29T15:08:09.351Z,10.20
2022-12-29T15:10:42.885Z,10.30
2022-12-29T15:13:18.445Z,10.50
2022-12-29T15:15:48.720Z,10.50
2022-12-29T15:18:25.185Z,10.40
2022-12-29T15:20:57.456Z,10.40
2022-12-29T15:23:29.532Z,10.40
2022-12-29T15:25:59.897Z,10.40
2022-12-29T15:28:30.234Z,10.40
2022-12-29T15:31:06.228Z,10.40
2022-12-29T15:33:41.881Z,10.40
2022-12-29T15:36:16.198Z,10.40
2022-12-29T15:38:44.732Z,10.50
2022-12-29T15:41:26.565Z,10.50
2022-12-29T15:44:02.626Z,10.50
2022-12-29T15:46:34.253Z,10.20
2022-12-29T15:49:10.195Z,9.80
2022-12-29T15:51:40.710Z,9.60
2022-12-29T15:54:20.437Z,9.80
2022-12-29T15:56:51.033Z,10.00
2022-12-29T15:59:28.812Z,10.10
2022-12-29T16:01:59.737Z,10.20
2022-12-29T16:04:31.216Z,10.20
2022-12-29T16:07:01.534Z,10.20
2022-12-29T16:09:34.985Z,10.20
2022-12-29T16:12:06.947Z,10.20
2022-12-29T16:14:42.179Z,10.20
2022-12-29T16:17:20.280Z,10.20
2022-12-29T16:19:53.469Z,10.20
2022-12-29T16:22:28.599Z,10.30
2022-12-29T16:25:04.750Z,10.30
2022-12-29T16:27:40.721Z,10.20
2022-12-29T16:30:24.289Z,9.90
2022-12-29T16:33:01.112Z,9.70
2022-12-29T16:35:31.143Z,9.90
2022-12-29T16:38:19.103Z,10.00
2022-12-29T16:40:54.960Z,10.10
2022-12-29T16:43:25.461Z,10.10
2022-12-29T16:46:18.905Z,10.10
2022-12-29T16:48:54.760Z,10.10
2022-12-29T16:51:31.751Z,10.10
2022-12-29T16:54:04.540Z,10.00
2022-12-29T16:56:36.093Z,10.10
2022-12-29T16:59:07.053Z,10.10
2022-12-29T17:01:38.884Z,10.10
2022-12-29T17:04:11.592Z,10.10
2022-12-29T17:06:40.815Z,10.10
2022-12-29T17:09:21.679Z,10.10
2022-12-29T17:12:05.018Z,10.10
2022-12-29T17:14:43.981Z,10.10
2022-12-29T17:17:17.115Z,10.10
2022-12-29T17:19:51.095Z,10.00
2022-12-29T17:22:24.065Z,10.10
2022-12-29T17:24:52.655Z,10.10
2022-12-29T17:27:26.333Z,10.10
2022-12-29T17:29:58.164Z,10.10
2022-12-29T17:32:27.295Z,10.00
2022-12-29T17:34:59.270Z,10.00
2022-12-29T17:37:33.652Z,9.90
2022-12-29T17:40:04.561Z,9.90
2022-12-29T17:42:34.840Z,9.90
2022-12-29T17:45:03.858Z,9.90
2022-12-29T17:47:34.956Z,9.90
2022-12-29T17:50:11.575Z,9.90
2022-12-29T17:52:40.090Z,10.00
2022-12-29T17:55:16.022Z,10.00
2022-12-29T17:57:44.660Z,10.10
2022-12-29T18:00:17.757Z,10.10
2022-12-29T18:02:46.584Z,10.00
2022-12-29T18:05:21.037Z,10.10
2022-12-29T18:07:50.268Z,10.10
2022-12-29T18:10:18.799Z,10.10
2022-12-29T18:12:51.436Z,10.10
2022-12-29T18:15:22.073Z,10.10
2022-12-29T18:17:51.362Z,10.10
2022-12-29T18:20:21.228Z,10.00
2022-12-29T18:22:49.753Z,10.00
2022-12-29T18:25:24.492Z,10.00
2022-12-29T18:27:52.973Z,10.00
2022-12-29T18:30:21.591Z,10.00
2022-12-29T18:32:50.188Z,10.00
2022-12-29T18:35:34.693Z,10.00
2022-12-29T18:38:03.186Z,10.00
2022-12-29T18:40:31.610Z,10.00
2022-12-29T18:43:01.633Z,10.00
2022-12-29T18:45:32.716Z,10.00
2022-12-29T18:48:04.169Z,10.00
2022-12-29T18:50:34.041Z,9.90
2022-12-29T18:53:04.189Z,9.90
2022-12-29T18:55:33.375Z,9.90
2022-12-29T18:58:02.599Z,9.90
2022-12-29T19:00:31.056Z,9.90
2022-12-29T19:02:59.761Z,9.90
2022-12-29T19:05:31.325Z,10.00
2022-12-29T19:08:01.202Z,10.00
2022-12-29T19:10:32.587Z,10.00
2022-12-29T19:13:01.276Z,10.10
2022-12-29T19:15:31.336Z,10.10
2022-12-29T19:18:42.360Z,10.10
2022-12-29T19:20:57.673Z,10.20
2022-12-29T19:23:28.887Z,10.20
2022-12-29T19:25:57.424Z,10.20
2022-12-29T19:28:27.852Z,10.20
2022-12-29T19:30:59.826Z,10.20
2022-12-29T19:33:29.511Z,10.30
2022-12-29T19:36:01.284Z,10.30
2022-12-29T19:38:33.862Z,10.30
2022-12-29T19:41:02.346Z,10.30
2022-12-29T19:43:31.750Z,10.30
2022-12-29T19:46:08.738Z,10.30
2022-12-29T19:48:37.884Z,10.40
2022-12-29T19:51:08.394Z,10.40
2022-12-29T19:53:38.538Z,10.30
2022-12-29T19:56:09.517Z,10.30
2022-12-29T19:58:45.300Z,10.30
2022-12-29T20:01:18.693Z,10.40
2022-12-29T20:03:47.423Z,10.40
2022-12-29T20:06:19.324Z,10.40
2022-12-29T20:08:49.270Z,10.40
2022-12-29T20:11:19.272Z,10.40
2022-12-29T20:13:48.720Z,10.40
2022-12-29T20:16:20.251Z,10.50
2022-12-29T20:18:49.743Z,10.40
2022-12-29T20:21:20.148Z,10.50
2022-12-29T20:23:50.506Z,10.50
2022-12-29T20:26:24.248Z,10.50
2022-12-29T20:28:53.312Z,10.40
2022-12-29T20:31:25.122Z,10.50
2022-12-29T20:33:53.859Z,10.40
2022-12-29T20:36:25.681Z,10.50
2022-12-29T20:38:57.244Z,10.40
2022-12-29T20:41:26.210Z,10.50
2022-12-29T20:43:54.981Z,10.50
2022-12-29T20:46:29.842Z,10.40
2022-12-29T20:49:01.100Z,10.40
2022-12-29T20:51:59.354Z,10.40
2022-12-29T20:54:21.916Z,10.40
2022-12-29T20:56:50.631Z,10.40
2022-12-29T20:59:28.001Z,10.40
2022-12-29T21:02:00.656Z,10.40
2022-12-29T21:04:43.716Z,10.40
2022-12-29T21:07:20.160Z,10.40
2022-12-29T21:09:50.544Z,10.40
2022-12-29T21:12:19.096Z,10.40
2022-12-29T21:14:47.687Z,10.50
2022-12-29T21:17:16.440Z,10.40
2022-12-29T21:19:45.126Z,10.30
2022-12-29T21:22:13.841Z,10.20
2022-12-29T21:24:42.480Z,10.20
2022-12-29T21:27:13.856Z,10.20
2022-12-29T21:29:42.490Z,10.10
2022-12-29T21:32:11.300Z,10.10
2022-12-29T21:34:39.852Z,10.10
2022-12-29T21:37:08.305Z,10.10
2022-12-29T21:39:37.175Z,10.20
2022-12-29T21:42:06.017Z,10.20
2022-12-29T21:44:53.424Z,10.20
2022-12-29T21:47:21.866Z,10.30
2022-12-29T21:49:50.356Z,10.30
2022-12-29T21:52:18.934Z,10.30
2022-12-29T21:55:05.589Z,10.30
2022-12-29T21:57:51.258Z,10.30
2022-12-29T22:00:38.358Z,10.30
2022-12-29T22:03:24.199Z,10.30
2022-12-29T22:06:10.660Z,10.30
2022-12-29T22:08:57.152Z,10.30
2022-12-29T22:11:45.927Z,10.40
2022-12-29T22:14:14.527Z,10.30
2022-12-29T22:16:44.388Z,10.20
2022-12-29T22:19:12.838Z,10.20
2022-12-29T22:21:41.314Z,10.20
2022-12-29T22:24:10.349Z,10.20
2022-12-29T22:26:38.829Z,10.20
2022-12-29T22:29:07.302Z,10.20
2022-12-29T22:31:37.827Z,10.20
2022-12-29T22:34:07.695Z,10.20
2022-12-29T22:36:38.774Z,10.20
2022-12-29T22:39:07.814Z,10.10
2022-12-29T22:41:36.340Z,10.10
2022-12-29T22:44:05.060Z,10.10
2022-12-29T22:46:33.746Z,10.00
2022-12-29T22:49:02.258Z,10.00
2022-12-29T22:51:32.070Z,10.00
2022-12-29T22:54:01.665Z,10.10
2022-12-29T22:56:31.364Z,10.10
2022-12-29T22:58:59.859Z,10.00
2022-12-29T23:01:28.486Z,10.10
2022-12-29T23:04:10.950Z,10.00
2022-12-29T23:06:47.054Z,10.00
2022-12-29T23:09:18.728Z,10.10
2022-12-29T23:11:47.849Z,10.10
2022-12-29T23:14:16.927Z,10.10
2022-12-29T23:16:45.671Z,10.10
2022-12-29T23:19:15.067Z,10.10
2022-12-29T23:21:43.679Z,10.10
2022-12-29T23:24:14.739Z,10.10
2022-12-29T23:26:46.694Z,10.20
2022-12-29T23:29:16.855Z,10.20
2022-12-29T23:31:45.783Z,10.20
2022-12-29T23:34:16.501Z,10.20
2022-12-29T23:36:45.260Z,10.20
2022-12-29T23:39:21.218Z,10.20
2022-12-29T23:41:52.838Z,10.20
2022-12-29T23:44:21.930Z,10.20
2022-12-29T23:46:50.710Z,10.10
2022-12-29T23:49:21.881Z,10.20
2022-12-29T23:51:50.318Z,10.20
2022-12-29T23:54:20.336Z,10.20
2022-12-29T23:56:48.854Z,10.20
2022-12-29T23:59:17.287Z,10.30
